createdAt,value
2022-11-19T00:04:29.878Z,26.8
2022-11-19T00:10:08.540Z,25.6
2022-11-19T00:15:51.367Z,24.4
2022-11-19T00:20:58.227Z,23.5
2022-11-19T00:26:36.541Z,22.8
2022-11-19T00:32:29.251Z,22.3
2022-11-19T00:37:51.202Z,21.8
2022-11-19T00:43:14.533Z,21.3
2022-11-19T00:48:52.813Z,20.9
2022-11-19T00:54:30.334Z,20.7
2022-11-19T00:59:53.052Z,22.3
2022-11-19T01:05:31.095Z,26.8
2022-11-19T01:10:53.693Z,27.5
2022-11-19T01:16:30.948Z,26.8
2022-11-19T01:22:09.212Z,25.5
2022-11-19T01:27:36.227Z,24.4
2022-11-19T01:32:58.315Z,23.6
2022-11-19T01:38:35.598Z,22.8
2022-11-19T01:44:13.847Z,22.3
2022-11-19T01:49:35.653Z,21.8
2022-11-19T01:55:13.655Z,21.3
2022-11-19T02:00:51.328Z,20.9
2022-11-19T02:06:29.737Z,20.6
2022-11-19T02:11:52.357Z,21.9
2022-11-19T02:17:29.763Z,26.5
2022-11-19T02:23:07.165Z,27.2
2022-11-19T02:28:49.608Z,26.5
2022-11-19T02:34:10.132Z,25.3
2022-11-19T02:39:48.333Z,24.3
2022-11-19T02:45:10.938Z,23.4
2022-11-19T02:50:32.868Z,22.7
2022-11-19T02:56:10.481Z,22.1
2022-11-19T03:01:33.664Z,21.6
2022-11-19T03:06:55.973Z,21.3
2022-11-19T03:12:33.422Z,20.9
2022-11-19T03:18:10.894Z,20.6
2022-11-19T03:23:17.034Z,22.8
2022-11-19T03:28:39.192Z,26.7
2022-11-19T03:34:16.661Z,27.4
2022-11-19T03:39:54.925Z,26.6
2022-11-19T03:45:32.383Z,25.4
2022-11-19T03:51:09.841Z,24.3
2022-11-19T03:56:49.112Z,23.4
2022-11-19T04:02:32.694Z,22.7
2022-11-19T04:08:10.648Z,22.1
2022-11-19T04:13:47.081Z,21.6
2022-11-19T04:19:09.991Z,21.2
2022-11-19T04:24:32.238Z,20.8
2022-11-19T04:29:54.628Z,20.6
2022-11-19T04:35:01.078Z,23.2
2022-11-19T04:40:38.770Z,26.8
2022-11-19T04:46:00.749Z,27.3
2022-11-19T04:51:23.109Z,26.6
2022-11-19T04:57:06.681Z,25.4
2022-11-19T05:02:46.206Z,24.3
2022-11-19T05:07:52.772Z,23.4
2022-11-19T05:13:31.606Z,24.1
2022-11-19T05:19:12.987Z,27.4
2022-11-19T05:24:51.087Z,28
2022-11-19T05:30:36.462Z,27.2
2022-11-19T05:36:18.891Z,25.9
2022-11-19T05:41:57.010Z,24.7
2022-11-19T05:47:34.567Z,23.8
2022-11-19T05:53:12.880Z,22.9
2022-11-19T05:58:51.190Z,25
2022-11-19T06:04:29.429Z,28.1
2022-11-19T06:10:06.882Z,27.8
2022-11-19T06:15:49.199Z,26.8
2022-11-19T06:21:28.908Z,25.5
2022-11-19T06:26:51.451Z,24.4
2022-11-19T06:32:29.682Z,23.6
2022-11-19T06:38:14.234Z,22.8
2022-11-19T06:43:57.505Z,24.9
2022-11-19T06:49:37.053Z,28.3
2022-11-19T06:55:16.414Z,27.8
2022-11-19T07:00:54.439Z,26.8
2022-11-19T07:06:32.704Z,25.4
2022-11-19T07:12:12.888Z,24.3
2022-11-19T07:17:36.359Z,23.4
2022-11-19T07:23:16.105Z,22.8
2022-11-19T07:28:54.678Z,22.2
2022-11-19T07:34:32.288Z,21.7
2022-11-19T07:40:17.715Z,21.2
2022-11-19T07:46:01.561Z,20.9
2022-11-19T07:51:43.981Z,20.6
2022-11-19T07:57:06.549Z,24.4
2022-11-19T08:02:35.953Z,27.9
2022-11-19T08:08:18.402Z,27.3
2022-11-19T08:13:56.663Z,26.2
2022-11-19T08:19:39.154Z,24.9
2022-11-19T08:25:17.131Z,23.8
2022-11-19T08:30:57.856Z,23.1
2022-11-19T08:36:36.545Z,22.4
2022-11-19T08:42:15.062Z,21.8
2022-11-19T08:47:52.865Z,21.4
2022-11-19T08:53:31.083Z,21
2022-11-19T08:59:08.854Z,20.7
2022-11-19T09:04:50.887Z,20.4
2022-11-19T09:10:34.873Z,22.3
2022-11-19T09:15:57.884Z,27.1
2022-11-19T09:21:39.890Z,27.6
2022-11-19T09:27:23.287Z,26.8
2022-11-19T09:33:00.752Z,25.4
2022-11-19T09:38:38.982Z,24.1
2022-11-19T09:44:22.660Z,23.3
2022-11-19T09:50:00.181Z,22.6
2022-11-19T09:55:38.476Z,22
2022-11-19T10:01:16.501Z,21.6
2022-11-19T10:06:39.108Z,21.2
2022-11-19T10:12:23.072Z,20.8
2022-11-19T10:17:51.277Z,20.5
2022-11-19T10:23:30.744Z,20.3
2022-11-19T10:29:08.244Z,20.1
2022-11-19T10:34:46.217Z,19.9
2022-11-19T10:40:29.918Z,19.8
2022-11-19T10:46:10.928Z,19.6
2022-11-19T10:51:52.276Z,19.4
2022-11-19T10:57:19.488Z,19.4
2022-11-19T11:02:44.830Z,19.3
2022-11-19T11:08:24.153Z,19.1
2022-11-19T11:14:02.355Z,19
2022-11-19T11:19:41.595Z,18.9
2022-11-19T11:25:23.810Z,18.8
2022-11-19T11:31:02.094Z,18.8
2022-11-19T11:36:34.256Z,18.8
2022-11-19T11:47:54.979Z,18.6
2022-11-19T11:53:23.820Z,18.6
2022-11-19T11:59:01.800Z,18.6
2022-11-19T12:04:22.231Z,18.5
2022-11-19T12:09:50.699Z,18.4
2022-11-19T12:15:34.399Z,18.4
2022-11-19T12:21:12.257Z,18.4
2022-11-19T12:26:34.871Z,18.4
2022-11-19T12:32:11.816Z,18.3
2022-11-19T12:37:49.541Z,18.3
2022-11-19T12:43:28.995Z,18.2
2022-11-19T12:49:08.741Z,18.2
2022-11-19T12:54:52.110Z,18.2
2022-11-19T13:00:30.211Z,18.1
2022-11-19T13:05:52.844Z,18.1
2022-11-19T13:11:19.356Z,18.1
2022-11-19T13:16:41.800Z,18.1
2022-11-19T13:22:19.410Z,18.1
2022-11-19T13:27:57.295Z,18.1
2022-11-19T13:33:35.437Z,18
2022-11-19T13:39:19.177Z,18
2022-11-19T13:45:22.551Z,18
2022-11-19T13:51:02.416Z,18
2022-11-19T13:56:43.790Z,18
2022-11-19T14:02:21.550Z,17.9
2022-11-19T14:08:04.075Z,17.9
2022-11-19T14:13:26.575Z,17.9
2022-11-19T14:18:33.675Z,17.9
2022-11-19T14:24:00.732Z,17.9
2022-11-19T14:29:39.564Z,17.9
2022-11-19T14:35:17.824Z,17.9
2022-11-19T14:41:00.343Z,17.9
2022-11-19T14:46:37.996Z,17.9
2022-11-19T14:52:01.565Z,17.9
2022-11-19T14:57:40.142Z,17.9
2022-11-19T15:03:18.797Z,17.9
2022-11-19T15:09:02.962Z,17.9
2022-11-19T15:14:40.033Z,17.9
2022-11-19T15:20:02.137Z,17.9
2022-11-19T15:25:30.448Z,17.9
2022-11-19T15:30:39.100Z,17.8
2022-11-19T15:36:37.057Z,17.9
2022-11-19T15:41:59.873Z,17.8
2022-11-19T15:47:38.024Z,17.8
2022-11-19T15:52:51.312Z,17.8
2022-11-19T15:58:13.292Z,17.8
2022-11-19T16:03:21.612Z,17.8
2022-11-19T16:08:59.687Z,17.8
2022-11-19T16:14:08.457Z,17.8
2022-11-19T16:19:37.082Z,17.8
2022-11-19T16:25:19.535Z,17.8
2022-11-19T16:30:57.775Z,17.8
2022-11-19T16:36:42.638Z,17.8
2022-11-19T16:42:20.566Z,17.8
2022-11-19T16:47:43.928Z,17.8
2022-11-19T16:53:21.380Z,17.8
2022-11-19T16:58:47.609Z,17.8
2022-11-19T17:04:31.608Z,17.8
2022-11-19T17:10:09.388Z,17.8
2022-11-19T17:15:32.018Z,17.8
2022-11-19T17:21:15.775Z,17.8
2022-11-19T17:26:42.802Z,17.8
2022-11-19T17:32:20.593Z,17.7
2022-11-19T17:37:47.326Z,17.8
2022-11-19T17:43:25.497Z,17.8
2022-11-19T17:48:44.893Z,17.7
2022-11-19T17:54:07.457Z,17.8
2022-11-19T17:59:45.367Z,17.7
2022-11-19T18:05:25.635Z,17.7
2022-11-19T18:10:48.765Z,17.7
2022-11-19T18:15:41.845Z,17.7
2022-11-19T18:21:21.433Z,17.7
2022-11-19T18:27:00.356Z,17.7
2022-11-19T18:32:27.795Z,17.6
2022-11-19T18:37:51.885Z,17.7
2022-11-19T18:43:35.113Z,17.7
2022-11-19T18:49:16.745Z,17.7
2022-11-19T18:54:57.835Z,17.7
2022-11-19T19:00:43.803Z,17.7
2022-11-19T19:05:57.295Z,17.7
2022-11-19T19:11:08.065Z,17.7
2022-11-19T19:16:47.221Z,17.6
2022-11-19T19:22:15.390Z,17.6
2022-11-19T19:28:02.440Z,17.6
2022-11-19T19:33:30.798Z,17.6
2022-11-19T19:39:10.984Z,17.6
2022-11-19T19:44:55.735Z,17.6
2022-11-19T19:50:35.679Z,17.6
2022-11-19T19:56:15.252Z,17.6
2022-11-19T20:01:40.569Z,17.6
2022-11-19T20:07:20.072Z,17.6
2022-11-19T20:13:03.370Z,17.6
2022-11-19T20:18:32.586Z,17.6
2022-11-19T20:24:12.592Z,17.5
2022-11-19T20:29:52.153Z,24
2022-11-19T20:35:31.379Z,27.2
2022-11-19T20:40:53.792Z,28.3
2022-11-19T20:46:38.620Z,27.3
2022-11-19T20:52:20.537Z,25.9
2022-11-19T20:58:02.457Z,24.7
2022-11-19T21:03:45.331Z,23.7
2022-11-19T21:09:08.017Z,22.9
2022-11-19T21:14:50.953Z,22.2
2022-11-19T21:20:17.572Z,26.3
2022-11-19T21:26:00.233Z,28.8
2022-11-19T21:31:38.787Z,28.3
2022-11-19T21:37:16.607Z,27.3
2022-11-19T21:42:57.402Z,27.7
2022-11-19T21:48:35.697Z,29.6
2022-11-19T21:54:13.688Z,29.4
2022-11-19T21:59:57.150Z,28.5
2022-11-19T22:05:34.807Z,30.2
2022-11-19T22:11:18.375Z,28.9
2022-11-19T22:16:25.453Z,27.7
2022-11-19T22:22:03.711Z,27.5
2022-11-19T22:27:41.960Z,29.7
2022-11-19T22:33:25.794Z,29.1
2022-11-19T22:39:10.129Z,28.1
2022-11-19T22:44:01.103Z,26.7
2022-11-19T22:49:23.627Z,27.9
2022-11-19T22:55:01.771Z,30.1
2022-11-19T22:59:53.978Z,28.9
2022-11-19T23:05:36.926Z,27.9
2022-11-19T23:10:59.936Z,26.5
2022-11-19T23:16:38.300Z,26.8
2022-11-19T23:22:18.881Z,29.6
2022-11-19T23:27:56.692Z,29.1
2022-11-19T23:33:34.783Z,28.1
2022-11-19T23:39:19.118Z,26.6
2022-11-19T23:44:46.726Z,25.3
2022-11-19T23:50:24.816Z,28.3
2022-11-19T23:56:02.792Z,29.3
